createdAt,value
2023-04-15T00:01:49.213Z,4.30
2023-04-15T00:04:16.236Z,5.25
2023-04-15T00:06:43.232Z,4.63
2023-04-15T00:09:10.303Z,5.03
2023-04-15T00:11:37.245Z,5.43
2023-04-15T00:14:04.519Z,4.97
2023-04-15T00:16:31.514Z,4.95
2023-04-15T00:18:58.996Z,5.07
2023-04-15T00:21:27.604Z,5.75
2023-04-15T00:23:54.650Z,6.13
2023-04-15T00:26:21.559Z,6.00
2023-04-15T00:28:50.384Z,5.50
2023-04-15T00:31:17.312Z,5.47
2023-04-15T00:33:44.710Z,5.85
2023-04-15T00:36:11.627Z,6.22
2023-04-15T00:38:39.182Z,5.55
2023-04-15T00:41:06.189Z,5.60
2023-04-15T00:43:33.069Z,6.43
2023-04-15T00:46:00.907Z,6.05
2023-04-15T00:48:28.666Z,6.43
2023-04-15T00:50:55.508Z,6.07
2023-04-15T00:53:22.375Z,6.50
2023-04-15T00:55:49.723Z,6.28
2023-04-15T00:58:17.301Z,5.55
2023-04-15T01:00:44.548Z,6.05
2023-04-15T01:03:11.843Z,6.45
2023-04-15T01:05:39.307Z,6.38
2023-04-15T01:08:06.674Z,7.72
2023-04-15T01:10:33.927Z,6.53
2023-04-15T01:13:01.326Z,6.70
2023-04-15T01:15:28.284Z,6.32
2023-04-15T01:17:55.272Z,6.20
2023-04-15T01:20:22.275Z,7.68
2023-04-15T01:22:50.110Z,7.35
2023-04-15T01:25:27.190Z,6.63
2023-04-15T01:27:54.169Z,6.32
2023-04-15T01:30:21.823Z,6.93
2023-04-15T01:32:48.683Z,6.97
2023-04-15T01:35:15.610Z,7.22
2023-04-15T01:37:42.883Z,6.68
2023-04-15T01:40:10.088Z,7.20
2023-04-15T01:42:37.723Z,7.10
2023-04-15T01:45:05.338Z,6.20
2023-04-15T01:47:32.255Z,6.75
2023-04-15T01:49:59.141Z,6.72
2023-04-15T01:52:26.223Z,6.43
2023-04-15T01:54:53.024Z,7.72
2023-04-15T01:57:19.887Z,6.15
2023-04-15T01:59:47.007Z,7.22
2023-04-15T02:02:15.563Z,6.22
2023-04-15T02:04:42.595Z,6.15
2023-04-15T02:07:09.585Z,6.10
2023-04-15T02:09:36.421Z,6.22
2023-04-15T02:12:03.293Z,6.32
2023-04-15T02:14:30.794Z,6.25
2023-04-15T02:16:57.729Z,5.82
2023-04-15T02:19:25.244Z,6.45
2023-04-15T02:21:52.236Z,6.50
2023-04-15T02:24:19.075Z,6.50
2023-04-15T02:26:46.649Z,6.85
2023-04-15T02:29:13.626Z,6.88
2023-04-15T02:31:42.262Z,7.20
2023-04-15T02:34:09.243Z,6.57
2023-04-15T02:36:36.218Z,5.85
2023-04-15T02:39:05.299Z,6.20
2023-04-15T02:41:32.144Z,7.38
2023-04-15T02:43:59.294Z,5.80
2023-04-15T02:46:27.472Z,6.25
2023-04-15T02:48:54.452Z,6.40
2023-04-15T02:51:23.327Z,6.20
2023-04-15T02:53:51.083Z,5.90
2023-04-15T02:56:19.515Z,6.95
2023-04-15T02:58:46.822Z,5.68
2023-04-15T03:01:13.842Z,6.57
2023-04-15T03:03:41.747Z,6.93
2023-04-15T03:06:09.145Z,6.65
2023-04-15T03:08:37.101Z,7.78
2023-04-15T03:11:04.914Z,7.20
2023-04-15T03:13:33.186Z,7.78
2023-04-15T03:16:06.667Z,7.45
2023-04-15T03:18:33.701Z,7.55
2023-04-15T03:21:03.193Z,7.75
2023-04-15T03:26:04.559Z,7.32
2023-04-15T03:28:33.166Z,6.95
2023-04-15T03:31:01.190Z,8.30
2023-04-15T03:33:28.594Z,8.07
2023-04-15T03:35:55.653Z,7.38
2023-04-15T03:38:22.546Z,7.55
2023-04-15T03:40:49.384Z,8.48
2023-04-15T03:43:16.599Z,8.30
2023-04-15T03:45:43.652Z,7.75
2023-04-15T03:48:16.442Z,9.10
2023-04-15T03:50:44.607Z,8.50
2023-04-15T03:53:11.510Z,8.23
2023-04-15T03:55:38.333Z,7.85
2023-04-15T03:58:05.239Z,9.25
2023-04-15T04:00:32.212Z,8.73
2023-04-15T04:02:59.294Z,10.00
2023-04-15T04:05:26.339Z,9.10
2023-04-15T04:07:53.315Z,9.00
2023-04-15T04:10:20.195Z,9.15
2023-04-15T04:12:47.136Z,8.90
2023-04-15T04:15:14.025Z,9.52
2023-04-15T04:17:40.893Z,10.98
2023-04-15T04:20:08.393Z,9.32
2023-04-15T04:22:41.315Z,10.18
2023-04-15T04:25:08.771Z,10.30
2023-04-15T04:27:36.070Z,11.27
2023-04-15T04:30:03.140Z,10.25
2023-04-15T04:32:30.314Z,10.88
2023-04-15T04:34:57.160Z,11.57
2023-04-15T04:37:24.704Z,10.85
2023-04-15T04:39:51.644Z,11.23
2023-04-15T04:42:18.582Z,10.77
2023-04-15T04:44:45.388Z,12.18
2023-04-15T04:47:12.269Z,11.55
2023-04-15T04:49:39.372Z,12.48
2023-04-15T04:52:06.600Z,12.02
2023-04-15T04:54:33.758Z,13.38
2023-04-15T04:57:00.898Z,12.07
2023-04-15T04:59:28.196Z,13.63
2023-04-15T05:01:55.109Z,13.45
2023-04-15T05:04:22.420Z,13.25
2023-04-15T05:06:49.202Z,15.18
2023-04-15T05:09:16.160Z,13.63
2023-04-15T05:11:42.967Z,12.80
2023-04-15T05:14:10.017Z,13.93
2023-04-15T05:16:36.851Z,13.25
2023-04-15T05:19:03.794Z,12.40
2023-04-15T05:21:31.704Z,12.90
2023-04-15T05:23:58.559Z,13.18
2023-04-15T05:26:25.464Z,11.95
2023-04-15T05:28:52.326Z,12.85
2023-04-15T05:31:19.497Z,12.35
2023-04-15T05:33:46.930Z,11.93
2023-04-15T05:36:13.899Z,12.18
2023-04-15T05:38:41.050Z,12.65
2023-04-15T05:41:07.922Z,13.00
2023-04-15T05:43:34.797Z,13.48
2023-04-15T05:46:01.657Z,12.55
2023-04-15T05:48:28.571Z,13.63
2023-04-15T05:50:55.503Z,10.93
2023-04-15T05:53:22.442Z,14.50
2023-04-15T05:55:49.304Z,14.18
2023-04-15T05:58:16.237Z,13.18
2023-04-15T06:00:43.888Z,12.48
2023-04-15T06:03:11.871Z,13.55
2023-04-15T06:05:38.788Z,13.77
2023-04-15T06:08:05.901Z,13.40
2023-04-15T06:10:36.596Z,13.57
2023-04-15T06:13:04.333Z,13.35
2023-04-15T06:15:31.769Z,12.75
2023-04-15T06:17:59.153Z,13.25
2023-04-15T06:20:26.220Z,13.82
2023-04-15T06:22:53.161Z,12.02
2023-04-15T06:25:19.978Z,12.43
2023-04-15T06:27:47.250Z,12.50
2023-04-15T06:30:14.334Z,12.05
2023-04-15T06:32:41.658Z,12.73
2023-04-15T06:35:10.151Z,13.00
2023-04-15T06:37:36.963Z,12.95
2023-04-15T06:40:05.237Z,13.25
2023-04-15T06:42:32.387Z,11.73
2023-04-15T06:44:59.276Z,11.40
2023-04-15T06:47:26.229Z,11.13
2023-04-15T06:49:53.154Z,12.05
2023-04-15T06:52:22.928Z,10.75
2023-04-15T06:54:49.759Z,11.95
2023-04-15T06:57:16.659Z,11.68
2023-04-15T06:59:43.560Z,10.90
2023-04-15T07:02:13.302Z,11.75
2023-04-15T07:04:40.483Z,11.70
2023-04-15T07:07:08.311Z,10.63
2023-04-15T07:09:35.481Z,10.93
2023-04-15T07:12:02.800Z,10.20
2023-04-15T07:14:30.169Z,9.82
2023-04-15T07:16:57.657Z,10.25
2023-04-15T07:19:24.638Z,9.40
2023-04-15T07:21:51.573Z,9.63
2023-04-15T07:24:20.097Z,8.68
2023-04-15T07:26:47.214Z,9.32
2023-04-15T07:29:14.187Z,8.60
2023-04-15T07:31:42.281Z,9.15
2023-04-15T07:34:09.391Z,9.75
2023-04-15T07:36:36.854Z,9.55
2023-04-15T07:39:04.505Z,11.10
2023-04-15T07:41:31.749Z,10.13
2023-04-15T07:43:59.003Z,10.10
2023-04-15T07:46:27.336Z,9.18
2023-04-15T07:48:54.465Z,10.05
2023-04-15T07:51:21.409Z,9.68
2023-04-15T07:53:49.556Z,10.32
2023-04-15T07:56:16.489Z,9.90
2023-04-15T07:58:43.853Z,10.65
2023-04-15T08:01:10.723Z,10.63
2023-04-15T08:03:37.873Z,9.65
2023-04-15T08:06:04.926Z,10.50
2023-04-15T08:08:32.116Z,10.75
2023-04-15T08:10:59.255Z,10.45
2023-04-15T08:13:27.091Z,10.73
2023-04-15T08:16:14.485Z,11.48
2023-04-15T08:18:41.907Z,10.77
2023-04-15T08:21:09.388Z,9.30
2023-04-15T08:23:36.488Z,10.45
2023-04-15T08:26:03.486Z,9.05
2023-04-15T08:28:30.772Z,8.98
2023-04-15T08:30:57.827Z,9.05
2023-04-15T08:33:24.660Z,8.50
2023-04-15T08:35:51.674Z,7.05
2023-04-15T08:38:18.984Z,7.15
2023-04-15T08:40:46.285Z,8.00
2023-04-15T08:43:20.186Z,8.85
2023-04-15T08:45:48.650Z,9.05
2023-04-15T08:48:17.027Z,8.75
2023-04-15T08:50:44.358Z,9.25
2023-04-15T08:53:11.963Z,8.38
2023-04-15T08:55:44.940Z,7.75
2023-04-15T08:58:12.823Z,7.75
2023-04-15T09:00:40.695Z,7.63
2023-04-15T09:03:08.913Z,8.68
2023-04-15T09:05:37.260Z,7.70
2023-04-15T09:08:05.665Z,6.78
2023-04-15T09:10:33.647Z,7.10
2023-04-15T09:13:02.075Z,7.15
2023-04-15T09:15:30.358Z,6.38
2023-04-15T09:17:57.376Z,6.70
2023-04-15T09:20:24.637Z,6.05
2023-04-15T09:22:56.144Z,5.70
2023-04-15T09:25:23.266Z,5.55
2023-04-15T09:27:56.302Z,5.03
2023-04-15T09:30:24.185Z,5.15
2023-04-15T09:32:57.144Z,5.10
2023-04-15T09:35:25.634Z,4.90
2023-04-15T09:37:53.359Z,4.40
2023-04-15T09:40:40.255Z,4.43
2023-04-15T09:43:09.791Z,4.38
2023-04-15T09:45:37.209Z,4.25
2023-04-15T09:48:21.785Z,4.13
2023-04-15T09:50:49.786Z,4.03
2023-04-15T09:53:26.582Z,4.40
2023-04-15T09:55:55.883Z,4.20
2023-04-15T09:58:30.328Z,3.63
2023-04-15T10:00:59.920Z,4.18
2023-04-15T10:03:29.573Z,4.43
2023-04-15T10:05:58.638Z,4.22
2023-04-15T10:08:28.281Z,4.40
2023-04-15T10:10:56.191Z,3.72
2023-04-15T10:13:28.813Z,4.30
2023-04-15T10:15:58.390Z,3.92
2023-04-15T10:18:31.636Z,3.95
2023-04-15T10:21:01.304Z,4.07
2023-04-15T10:23:28.863Z,4.25
2023-04-15T10:25:57.551Z,3.85
2023-04-15T10:28:24.951Z,4.40
2023-04-15T10:30:53.528Z,3.95
2023-04-15T10:33:23.668Z,4.50
2023-04-15T10:35:52.728Z,4.40
2023-04-15T10:38:37.559Z,4.33
2023-04-15T10:41:20.226Z,4.25
2023-04-15T10:44:04.512Z,3.85
2023-04-15T10:46:42.702Z,3.58
2023-04-15T10:49:16.157Z,3.38
2023-04-15T10:51:45.138Z,3.60
2023-04-15T10:54:33.309Z,3.50
2023-04-15T10:57:06.811Z,3.58
2023-04-15T10:59:37.876Z,3.10
2023-04-15T11:02:08.832Z,3.63
2023-04-15T11:05:00.087Z,3.10
2023-04-15T11:07:41.123Z,3.88
2023-04-15T11:10:13.901Z,3.70
2023-04-15T11:12:42.158Z,3.50
2023-04-15T11:15:31.116Z,3.20
2023-04-15T11:18:00.384Z,3.47
2023-04-15T11:20:27.536Z,3.67
2023-04-15T11:23:13.832Z,4.20
2023-04-15T11:25:43.196Z,3.15
2023-04-15T11:28:12.280Z,4.13
2023-04-15T11:30:40.612Z,3.85
2023-04-15T11:33:09.853Z,2.78
2023-04-15T11:35:37.304Z,3.58
2023-04-15T11:38:06.150Z,3.80
2023-04-15T11:40:35.887Z,2.78
2023-04-15T11:43:06.769Z,3.30
2023-04-15T11:45:33.952Z,3.70
2023-04-15T11:48:07.198Z,3.20
2023-04-15T11:50:36.090Z,3.67
2023-04-15T11:53:08.263Z,3.20
2023-04-15T11:56:02.403Z,3.83
2023-04-15T11:58:29.828Z,4.07
2023-04-15T12:01:01.503Z,3.65
2023-04-15T12:03:44.721Z,3.63
2023-04-15T12:06:28.226Z,3.42
2023-04-15T12:09:01.185Z,4.78
2023-04-15T12:11:31.290Z,3.72
2023-04-15T12:14:20.935Z,4.05
2023-04-15T12:22:04.719Z,4.93
2023-04-15T12:24:34.593Z,4.68
2023-04-15T12:29:32.332Z,5.63
2023-04-15T12:32:24.990Z,5.55
2023-04-15T12:34:54.496Z,6.15
2023-04-15T12:37:22.553Z,6.68
2023-04-15T12:39:50.634Z,6.45
2023-04-15T12:42:18.416Z,6.50
2023-04-15T12:44:45.848Z,5.88
2023-04-15T12:47:13.894Z,6.07
2023-04-15T12:49:43.912Z,6.32
2023-04-15T12:52:10.962Z,6.72
2023-04-15T12:54:38.473Z,6.70
2023-04-15T12:57:07.438Z,7.35
2023-04-15T12:59:36.049Z,7.10
2023-04-15T13:02:03.948Z,7.57
2023-04-15T13:04:32.924Z,7.43
2023-04-15T13:07:02.825Z,7.35
2023-04-15T13:09:30.087Z,7.45
2023-04-15T13:11:57.738Z,7.35
2023-04-15T13:14:24.794Z,7.90
2023-04-15T13:16:56.285Z,8.50
2023-04-15T13:19:23.559Z,8.52
2023-04-15T13:21:52.366Z,8.38
2023-04-15T13:24:19.516Z,9.02
2023-04-15T13:26:48.580Z,9.23
2023-04-15T13:29:18.851Z,7.75
2023-04-15T13:31:50.229Z,9.90
2023-04-15T13:34:17.564Z,9.85
2023-04-15T13:36:44.486Z,9.82
2023-04-15T13:39:11.408Z,10.07
2023-04-15T13:41:38.515Z,10.25
2023-04-15T13:44:08.053Z,10.57
2023-04-15T13:46:35.840Z,9.35
2023-04-15T13:49:02.923Z,9.05
2023-04-15T13:51:29.830Z,11.20
2023-04-15T13:53:58.204Z,10.43
2023-04-15T13:56:25.190Z,9.45
2023-04-15T13:58:55.070Z,8.60
2023-04-15T14:01:22.577Z,9.55
2023-04-15T14:03:49.666Z,10.05
2023-04-15T14:06:16.995Z,9.55
2023-04-15T14:08:44.078Z,9.65
2023-04-15T14:11:11.108Z,10.45
2023-04-15T14:13:38.329Z,10.23
2023-04-15T14:16:08.180Z,10.15
2023-04-15T14:18:40.652Z,9.43
2023-04-15T14:21:08.527Z,10.20
2023-04-15T14:23:35.825Z,9.77
2023-04-15T14:26:05.938Z,10.65
2023-04-15T14:28:33.027Z,9.68
2023-04-15T14:31:00.711Z,9.48
2023-04-15T14:33:30.271Z,10.63
2023-04-15T14:36:00.647Z,11.77
2023-04-15T14:38:28.202Z,10.93
2023-04-15T14:40:55.136Z,10.57
2023-04-15T14:43:22.235Z,10.95
2023-04-15T14:45:49.794Z,9.90
2023-04-15T14:48:17.189Z,12.27
2023-04-15T14:50:44.200Z,11.13
2023-04-15T14:53:11.602Z,10.45
2023-04-15T14:55:38.839Z,12.05
2023-04-15T14:58:08.342Z,11.75
2023-04-15T15:00:36.189Z,13.20
2023-04-15T15:03:04.119Z,11.25
2023-04-15T15:05:31.331Z,11.35
2023-04-15T15:07:58.697Z,10.98
2023-04-15T15:10:34.768Z,10.75
2023-04-15T15:13:13.724Z,10.68
2023-04-15T15:15:41.368Z,10.93
2023-04-15T15:18:08.398Z,10.90
2023-04-15T15:20:36.110Z,11.65
2023-04-15T15:23:06.985Z,11.25
2023-04-15T15:25:34.633Z,12.27
2023-04-15T15:28:01.779Z,13.07
2023-04-15T15:30:28.722Z,10.85
2023-04-15T15:32:57.592Z,13.20
2023-04-15T15:35:26.169Z,12.68
2023-04-15T15:37:53.431Z,12.95
2023-04-15T15:40:20.804Z,13.10
2023-04-15T15:42:51.033Z,13.75
2023-04-15T15:45:18.280Z,13.50
2023-04-15T15:47:45.396Z,14.70
2023-04-15T15:50:14.180Z,14.05
2023-04-15T15:52:41.661Z,16.08
2023-04-15T15:55:09.216Z,16.83
2023-04-15T15:57:36.793Z,16.42
2023-04-15T16:00:11.835Z,18.23
2023-04-15T16:05:12.589Z,20.80
2023-04-15T16:07:39.780Z,21.42
2023-04-15T16:10:07.544Z,21.85
2023-04-15T16:12:35.111Z,22.85
2023-04-15T16:15:03.052Z,23.83
2023-04-15T16:17:30.312Z,25.02
2023-04-15T16:20:00.679Z,26.58
2023-04-15T16:22:28.444Z,25.75
2023-04-15T16:24:55.969Z,25.92
2023-04-15T16:27:23.821Z,28.52
2023-04-15T16:29:51.030Z,26.50
2023-04-15T16:32:18.289Z,26.80
2023-04-15T16:34:46.477Z,27.60
2023-04-15T16:37:13.811Z,27.05
2023-04-15T16:39:41.610Z,25.90
2023-04-15T16:42:10.593Z,29.20
2023-04-15T16:44:37.704Z,28.30
2023-04-15T16:47:06.096Z,27.23
2023-04-15T16:49:36.145Z,28.95
2023-04-15T16:52:06.324Z,32.08
2023-04-15T16:54:36.306Z,28.65
2023-04-15T16:57:04.153Z,28.58
2023-04-15T16:59:31.870Z,29.58
2023-04-15T17:02:00.274Z,30.38
2023-04-15T17:04:28.634Z,28.13
2023-04-15T17:06:56.177Z,29.50
2023-04-15T17:09:23.419Z,28.27
2023-04-15T17:11:51.233Z,28.50
2023-04-15T17:14:21.243Z,29.88
2023-04-15T17:16:48.996Z,27.63
2023-04-15T17:19:16.359Z,28.02
2023-04-15T17:21:43.412Z,29.13
2023-04-15T17:24:11.226Z,27.83
2023-04-15T17:26:39.202Z,28.50
2023-04-15T17:29:06.684Z,29.65
2023-04-15T17:31:34.176Z,29.23
2023-04-15T17:34:08.936Z,29.63
2023-04-15T17:36:38.176Z,30.35
2023-04-15T17:39:06.195Z,29.00
2023-04-15T17:41:34.069Z,31.98
2023-04-15T17:44:01.605Z,29.88
2023-04-15T17:46:29.135Z,30.73
2023-04-15T17:48:56.461Z,31.10
2023-04-15T17:51:23.591Z,31.33
2023-04-15T17:54:07.631Z,32.35
2023-04-15T17:56:35.917Z,32.38
2023-04-15T17:59:03.947Z,32.03
2023-04-15T18:01:31.598Z,33.75
2023-04-15T18:03:59.090Z,32.40
2023-04-15T18:06:27.555Z,34.05
2023-04-15T18:08:55.342Z,33.00
2023-04-15T18:11:23.621Z,34.72
2023-04-15T18:13:50.940Z,35.15
2023-04-15T18:16:18.356Z,33.45
2023-04-15T18:18:46.278Z,33.60
2023-04-15T18:21:14.090Z,33.95
2023-04-15T18:23:41.989Z,36.80
2023-04-15T18:26:09.683Z,36.28
2023-04-15T18:28:40.538Z,34.35
2023-04-15T18:31:08.421Z,37.08
2023-04-15T18:33:36.474Z,36.80
2023-04-15T18:36:04.594Z,36.08
2023-04-15T18:38:32.040Z,34.15
2023-04-15T18:40:59.920Z,34.95
2023-04-15T18:43:28.207Z,34.67
2023-04-15T18:45:55.488Z,36.80
2023-04-15T18:48:28.861Z,32.83
2023-04-15T18:50:58.829Z,31.90
2023-04-15T18:53:25.975Z,32.63
2023-04-15T18:55:53.225Z,31.83
2023-04-15T18:58:20.673Z,32.22
2023-04-15T19:00:48.215Z,31.75
2023-04-15T19:03:16.098Z,32.47
2023-04-15T19:05:43.756Z,29.67
2023-04-15T19:08:11.118Z,29.90
2023-04-15T19:10:38.729Z,29.63
2023-04-15T19:13:06.990Z,27.17
2023-04-15T19:15:34.449Z,27.67
2023-04-15T19:18:02.190Z,26.98
2023-04-15T19:20:31.871Z,27.77
2023-04-15T19:22:59.866Z,26.95
2023-04-15T19:25:27.287Z,28.67
2023-04-15T19:27:54.268Z,28.73
2023-04-15T19:30:21.919Z,28.40
2023-04-15T19:32:49.547Z,28.20
2023-04-15T19:35:17.405Z,28.73
2023-04-15T19:37:45.064Z,28.38
2023-04-15T19:40:12.250Z,29.80
2023-04-15T19:42:39.503Z,29.25
2023-04-15T19:45:07.478Z,29.33
2023-04-15T19:47:34.836Z,33.20
2023-04-15T19:50:02.044Z,31.60
2023-04-15T19:52:29.343Z,31.95
2023-04-15T19:54:56.489Z,31.90
2023-04-15T19:57:23.643Z,32.63
2023-04-15T19:59:50.870Z,32.97
2023-04-15T20:02:18.005Z,32.80
2023-04-15T20:04:45.078Z,30.50
2023-04-15T20:07:12.065Z,29.17
2023-04-15T20:09:39.295Z,29.45
2023-04-15T20:12:49.611Z,31.15
2023-04-15T20:14:53.892Z,29.08
2023-04-15T20:17:20.922Z,29.95
2023-04-15T20:19:48.329Z,28.15
2023-04-15T20:22:16.149Z,30.42
2023-04-15T20:24:43.172Z,30.33
2023-04-15T20:27:10.114Z,31.83
2023-04-15T20:29:37.781Z,30.92
2023-04-15T20:32:04.992Z,29.55
2023-04-15T20:34:31.980Z,29.70
2023-04-15T20:36:58.840Z,32.20
2023-04-15T20:39:25.817Z,30.98
2023-04-15T20:41:52.796Z,30.48
2023-04-15T20:44:19.728Z,31.10
2023-04-15T20:46:46.726Z,29.67
2023-04-15T20:49:13.937Z,33.38
2023-04-15T20:51:40.941Z,32.55
2023-04-15T20:54:07.777Z,30.75
2023-04-15T20:56:34.814Z,31.42
2023-04-15T20:59:01.881Z,32.45
2023-04-15T21:01:28.896Z,34.08
2023-04-15T21:03:55.816Z,35.53
2023-04-15T21:06:22.786Z,36.22
2023-04-15T21:08:49.646Z,36.95
2023-04-15T21:11:28.404Z,34.22
2023-04-15T21:14:07.214Z,37.25
2023-04-15T21:16:34.186Z,34.47
2023-04-15T21:19:01.293Z,36.25
2023-04-15T21:21:28.513Z,36.85
2023-04-15T21:23:56.059Z,35.88
2023-04-15T21:26:23.117Z,37.28
2023-04-15T21:28:49.999Z,35.25
2023-04-15T21:31:16.891Z,36.20
2023-04-15T21:33:43.861Z,35.88
2023-04-15T21:36:10.913Z,36.78
2023-04-15T21:38:37.783Z,37.70
2023-04-15T21:41:09.710Z,36.70
2023-04-15T21:43:39.775Z,35.13
2023-04-15T21:46:22.838Z,38.40
2023-04-15T21:48:54.847Z,36.67
2023-04-15T21:51:21.921Z,34.55
2023-04-15T21:53:48.781Z,36.28
2023-04-15T21:56:15.950Z,35.67
2023-04-15T21:58:43.101Z,35.45
2023-04-15T22:01:10.187Z,33.50
2023-04-15T22:03:37.402Z,33.75
2023-04-15T22:06:04.718Z,33.95
2023-04-15T22:08:41.336Z,35.03
2023-04-15T22:11:30.326Z,35.55
2023-04-15T22:13:58.347Z,33.30
2023-04-15T22:16:26.555Z,34.13
2023-04-15T22:18:54.267Z,34.50
2023-04-15T22:21:21.238Z,35.00
2023-04-15T22:23:51.940Z,34.25
2023-04-15T22:26:18.931Z,35.15
2023-04-15T22:28:45.760Z,35.88
2023-04-15T22:31:13.721Z,34.70
2023-04-15T22:33:40.675Z,36.00
2023-04-15T22:36:07.621Z,36.40
2023-04-15T22:38:34.460Z,36.75
2023-04-15T22:41:01.642Z,34.97
2023-04-15T22:43:28.592Z,35.30
2023-04-15T22:45:55.670Z,35.20
2023-04-15T22:48:22.980Z,36.08
2023-04-15T22:50:50.253Z,35.45
2023-04-15T22:53:17.876Z,35.08
2023-04-15T22:55:46.692Z,35.15
2023-04-15T22:58:14.123Z,35.42
2023-04-15T23:00:41.036Z,37.53
2023-04-15T23:03:08.211Z,36.60
2023-04-15T23:05:35.228Z,35.63
2023-04-15T23:08:03.180Z,36.53
2023-04-15T23:10:30.069Z,35.90
2023-04-15T23:12:56.878Z,36.10
2023-04-15T23:15:23.836Z,35.80
2023-04-15T23:17:54.265Z,36.88
2023-04-15T23:20:21.204Z,36.03
2023-04-15T23:22:51.246Z,34.50
2023-04-15T23:25:20.509Z,36.05
2023-04-15T23:27:47.348Z,35.83
2023-04-15T23:30:15.092Z,35.30
2023-04-15T23:32:41.980Z,36.35
2023-04-15T23:35:09.386Z,35.65
2023-04-15T23:37:36.252Z,33.05
2023-04-15T23:40:03.171Z,34.95
2023-04-15T23:42:30.007Z,35.17
2023-04-15T23:44:56.882Z,34.70
2023-04-15T23:47:23.833Z,34.95
2023-04-15T23:49:50.826Z,32.53
2023-04-15T23:52:17.718Z,32.10
2023-04-15T23:54:44.708Z,32.88
2023-04-15T23:57:11.689Z,35.22
2023-04-15T23:59:38.784Z,31.33
